Time;durP1;ratioP1;P1;durP2;ratioP2;P2;SDS_P1;SDS_P2;PMS_P1;PMS_P2;Temp;Humidity;BMP_temperature;BMP_pressure;BME280_temperature;BME280_humidity;BME280_pressure;Samples;Min_cycle;Max_cycle;Signal;HPM_P1;HPM_P2
2022/05/14 00:00:36;;;;;;;9.30;3.87;;;12.00;99.90;;;;;;5019247;28;20435;-48
2022/05/14 00:03:03;;;;;;;8.03;2.67;;;12.00;99.90;;;;;;5030980;28;20833;-49
2022/05/14 00:05:30;;;;;;;6.27;3.37;;;12.00;99.90;;;;;;5018355;28;20217;-47
2022/05/14 00:07:56;;;;;;;7.13;2.83;;;12.00;99.90;;;;;;5013852;28;20222;-46
2022/05/14 00:10:27;;;;;;;9.20;3.00;;;12.10;99.90;;;;;;5023553;28;21916;-47
2022/05/14 00:13:05;;;;;;;8.63;3.43;;;12.10;99.90;;;;;;5030416;28;20204;-49
2022/05/14 00:15:34;;;;;;;9.60;2.87;;;12.10;99.90;;;;;;5011910;28;20219;-47
2022/05/14 00:18:01;;;;;;;10.63;3.13;;;12.10;99.90;;;;;;5025487;28;20731;-45
2022/05/14 00:20:28;;;;;;;6.87;3.10;;;12.10;99.90;;;;;;5027051;28;20195;-48
2022/05/14 00:22:55;;;;;;;7.47;3.00;;;12.10;99.90;;;;;;5009006;28;20208;-48
2022/05/14 00:25:24;;;;;;;8.40;2.60;;;12.10;99.90;;;;;;5021038;28;20225;-44
2022/05/14 00:27:51;;;;;;;8.43;3.07;;;12.10;99.90;;;;;;5021480;28;20314;-45
2022/05/14 00:30:23;;;;;;;8.40;3.30;;;12.10;99.90;;;;;;5031992;28;20214;-47
2022/05/14 00:32:50;;;;;;;11.27;2.83;;;12.10;99.90;;;;;;5021287;28;20805;-47
2022/05/14 00:35:18;;;;;;;8.53;3.10;;;12.10;99.90;;;;;;5015631;28;20223;-46
2022/05/14 00:37:46;;;;;;;7.37;3.67;;;12.10;99.90;;;;;;5007045;28;20235;-49
2022/05/14 00:40:16;;;;;;;10.80;3.33;;;12.20;99.90;;;;;;5027203;28;20196;-51
2022/05/14 00:42:44;;;;;;;8.37;3.40;;;12.20;99.90;;;;;;5017520;28;20201;-47
2022/05/14 00:45:14;;;;;;;8.37;3.23;;;12.20;99.90;;;;;;5024960;28;20600;-49
2022/05/14 00:47:45;;;;;;;11.37;3.60;;;12.20;99.90;;;;;;5005481;28;20202;-50
2022/05/14 00:50:22;;;;;;;9.40;3.50;;;12.20;99.90;;;;;;5026152;28;20231;-46
2022/05/14 00:52:49;;;;;;;9.97;3.50;;;12.20;99.90;;;;;;4992682;28;20208;-45
2022/05/14 00:55:18;;;;;;;10.33;3.60;;;12.20;99.90;;;;;;5024622;28;20184;-45
2022/05/14 00:57:47;;;;;;;6.40;3.40;;;12.20;99.90;;;;;;5019721;28;20499;-48
2022/05/14 01:00:19;;;;;;;7.50;3.70;;;12.30;99.90;;;;;;5004410;28;20196;-46
2022/05/14 01:02:46;;;;;;;7.87;3.57;;;12.20;99.90;;;;;;5003890;28;20196;-46
2022/05/14 01:05:17;;;;;;;6.23;3.40;;;12.30;99.90;;;;;;5031986;28;20244;-46
2022/05/14 01:07:45;;;;;;;11.00;3.30;;;12.30;99.90;;;;;;5022888;28;20480;-45
2022/05/14 01:10:16;;;;;;;8.07;3.50;;;12.20;99.90;;;;;;5005630;28;20222;-47
2022/05/14 01:12:50;;;;;;;8.80;3.90;;;12.20;99.90;;;;;;5001128;28;20199;-45
2022/05/14 01:15:20;;;;;;;10.50;4.13;;;12.20;99.90;;;;;;5028372;28;20232;-45
2022/05/14 01:17:48;;;;;;;14.03;3.83;;;12.20;99.90;;;;;;5000433;28;20246;-47
2022/05/14 01:20:16;;;;;;;5.90;3.43;;;12.20;99.90;;;;;;5033603;28;20254;-46
2022/05/14 01:22:58;;;;;;;9.83;3.87;;;12.20;99.90;;;;;;5007912;28;20510;-47
2022/05/14 01:28:20;;;;;;;11.60;3.87;;;12.20;99.90;;;;;;5012310;28;20195;-45
2022/05/14 01:30:53;;;;;;;7.90;3.83;;;12.20;99.90;;;;;;5018571;28;20201;-47
2022/05/14 01:33:20;;;;;;;7.23;3.60;;;12.20;99.90;;;;;;5007623;28;20683;-44
2022/05/14 01:35:48;;;;;;;9.17;4.37;;;12.20;99.90;;;;;;5019624;28;20343;-46
2022/05/14 01:38:21;;;;;;;5.50;3.40;;;12.20;99.90;;;;;;5029992;28;20698;-50
2022/05/14 01:40:48;;;;;;;11.43;3.70;;;12.20;99.90;;;;;;5000975;28;20215;-48
2022/05/14 01:43:15;;;;;;;8.23;4.10;;;12.20;99.90;;;;;;5002804;28;20204;-45
2022/05/14 01:45:45;;;;;;;8.70;3.37;;;12.20;99.90;;;;;;5003639;28;20219;-47
2022/05/14 01:48:11;;;;;;;9.10;3.83;;;12.20;99.90;;;;;;5020677;28;20185;-47
2022/05/14 01:50:39;;;;;;;9.07;3.70;;;12.20;99.90;;;;;;5005999;28;20577;-46
2022/05/14 01:53:07;;;;;;;8.63;4.30;;;12.20;99.90;;;;;;5006376;28;20196;-48
2022/05/14 01:55:34;;;;;;;7.87;4.00;;;12.20;99.90;;;;;;5006414;28;20706;-49
2022/05/14 01:58:36;;;;;;;8.70;3.57;;;12.20;99.90;;;;;;5005119;28;20207;-48
2022/05/14 02:00:50;;;;;;;9.70;3.73;;;12.20;99.90;;;;;;5004332;28;20250;-48
2022/05/14 02:03:17;;;;;;;8.47;4.00;;;12.20;99.90;;;;;;5019395;28;20219;-46
2022/05/14 02:05:44;;;;;;;10.20;3.50;;;12.20;99.90;;;;;;5001680;28;20599;-45
2022/05/14 02:08:11;;;;;;;9.33;4.20;;;12.30;99.90;;;;;;5017442;28;20199;-45
2022/05/14 02:10:38;;;;;;;8.93;3.73;;;12.30;99.90;;;;;;5009051;28;20568;-45
2022/05/14 02:13:05;;;;;;;14.43;3.67;;;12.30;99.90;;;;;;4990129;28;20215;-47
2022/05/14 02:15:32;;;;;;;10.07;3.70;;;12.30;99.90;;;;;;5025566;28;20223;-45
2022/05/14 02:18:00;;;;;;;5.20;3.60;;;12.30;99.90;;;;;;5010558;28;20184;-46
2022/05/14 02:20:27;;;;;;;9.33;3.63;;;12.20;99.90;;;;;;5004779;28;20208;-44
2022/05/14 02:22:54;;;;;;;7.97;3.70;;;12.30;99.90;;;;;;5006528;28;20283;-47
2022/05/14 02:25:21;;;;;;;8.60;4.63;;;12.30;99.90;;;;;;5005205;28;20677;-47
2022/05/14 02:27:48;;;;;;;10.33;3.77;;;12.20;99.90;;;;;;4995999;28;20246;-46
2022/05/14 02:30:16;;;;;;;6.47;4.13;;;12.20;99.90;;;;;;5007240;28;20237;-45
2022/05/14 02:32:42;;;;;;;11.60;4.80;;;12.20;99.90;;;;;;5008348;28;20258;-49
2022/05/14 02:35:10;;;;;;;10.40;4.33;;;12.20;99.90;;;;;;5022003;28;20198;-50
2022/05/14 02:37:37;;;;;;;7.13;3.97;;;12.20;99.90;;;;;;5023320;28;20274;-50
2022/05/14 02:40:06;;;;;;;6.67;3.90;;;12.20;99.90;;;;;;5026206;28;21000;-44
2022/05/14 02:42:33;;;;;;;10.07;4.47;;;12.20;99.90;;;;;;5024123;28;20191;-48
2022/05/14 02:44:59;;;;;;;7.33;3.97;;;12.20;99.90;;;;;;5005879;28;20215;-49
2022/05/14 02:47:26;;;;;;;8.20;3.87;;;12.20;99.90;;;;;;5004709;28;20200;-49
2022/05/14 02:49:53;;;;;;;9.80;3.90;;;12.20;99.90;;;;;;5025431;28;20196;-49
2022/05/14 02:52:23;;;;;;;14.00;4.27;;;12.20;99.90;;;;;;5021618;28;21915;-47
2022/05/14 02:54:50;;;;;;;12.77;3.93;;;12.20;99.90;;;;;;5029896;28;20192;-50
2022/05/14 02:57:19;;;;;;;9.60;4.40;;;12.20;99.90;;;;;;5028034;28;20265;-49
2022/05/14 02:59:46;;;;;;;10.37;4.00;;;12.10;99.90;;;;;;5012448;28;20267;-48
2022/05/14 03:02:13;;;;;;;10.60;4.63;;;12.10;99.90;;;;;;5019563;28;20180;-45
2022/05/14 03:04:40;;;;;;;7.30;4.23;;;12.10;99.90;;;;;;5030093;28;20192;-46
2022/05/14 03:07:10;;;;;;;11.37;4.20;;;12.10;99.90;;;;;;5008944;28;20227;-46
2022/05/14 03:09:40;;;;;;;10.20;4.33;;;12.10;99.90;;;;;;5032499;28;20668;-45
2022/05/14 03:12:09;;;;;;;11.27;4.87;;;12.10;99.90;;;;;;5000441;28;20188;-44
2022/05/14 03:14:37;;;;;;;11.30;4.30;;;12.00;99.90;;;;;;5010850;28;20219;-45
2022/05/14 03:17:04;;;;;;;6.37;4.17;;;12.00;99.90;;;;;;5016753;28;20266;-46
2022/05/14 03:19:31;;;;;;;9.37;5.10;;;11.90;99.90;;;;;;5025403;28;20196;-46
2022/05/14 03:21:59;;;;;;;13.50;4.73;;;11.90;99.90;;;;;;4999861;28;20291;-48
2022/05/14 03:24:26;;;;;;;8.53;4.30;;;11.90;99.90;;;;;;5024512;28;20209;-45
2022/05/14 03:26:54;;;;;;;6.87;4.60;;;11.90;99.90;;;;;;5028988;28;20684;-47
2022/05/14 03:29:22;;;;;;;11.67;4.87;;;11.80;99.90;;;;;;5008248;28;20196;-47
2022/05/14 03:31:48;;;;;;;10.10;4.87;;;11.80;99.90;;;;;;5007760;28;20207;-50
2022/05/14 03:34:17;;;;;;;9.17;4.67;;;11.80;99.90;;;;;;5030703;28;20203;-45
2022/05/14 03:36:43;;;;;;;13.90;4.10;;;11.80;99.90;;;;;;4998099;28;20290;-45
2022/05/14 03:39:11;;;;;;;11.30;4.87;;;11.80;99.90;;;;;;5016648;28;20208;-49
2022/05/14 03:41:39;;;;;;;13.00;4.50;;;11.80;99.90;;;;;;5014252;28;20208;-46
2022/05/14 03:44:07;;;;;;;10.27;4.40;;;11.70;99.90;;;;;;5006277;28;20192;-45
2022/05/14 03:46:35;;;;;;;7.43;4.43;;;11.70;99.90;;;;;;5004589;28;20337;-44
2022/05/14 03:49:01;;;;;;;10.67;4.73;;;11.80;99.90;;;;;;5019545;28;20275;-44
2022/05/14 03:51:29;;;;;;;10.30;4.37;;;11.70;99.90;;;;;;5028100;28;20667;-48
2022/05/14 03:53:58;;;;;;;12.50;5.13;;;11.70;99.90;;;;;;5022062;28;20192;-47
2022/05/14 03:56:25;;;;;;;8.43;5.07;;;11.80;99.90;;;;;;5025899;28;20322;-45
2022/05/14 03:58:51;;;;;;;10.93;4.90;;;11.80;99.90;;;;;;5021380;28;20656;-46
2022/05/14 04:01:20;;;;;;;9.83;4.43;;;11.80;99.90;;;;;;4989326;28;20295;-48
2022/05/14 04:03:47;;;;;;;11.37;5.30;;;11.80;99.90;;;;;;5019783;28;20208;-47
2022/05/14 04:06:13;;;;;;;9.27;5.13;;;11.80;99.90;;;;;;5017266;28;20223;-49
2022/05/14 04:08:40;;;;;;;8.63;4.33;;;11.80;99.90;;;;;;5011457;28;20222;-49
2022/05/14 04:11:08;;;;;;;11.50;4.17;;;11.80;99.90;;;;;;5019003;28;20208;-45
2022/05/14 04:13:35;;;;;;;6.53;4.37;;;11.90;99.90;;;;;;5018177;28;20196;-50
2022/05/14 04:16:03;;;;;;;10.47;4.93;;;11.80;99.90;;;;;;5013118;28;20219;-51
2022/05/14 04:18:32;;;;;;;12.40;5.20;;;11.90;99.90;;;;;;5015157;28;21829;-48
2022/05/14 04:21:01;;;;;;;14.03;4.67;;;11.80;99.90;;;;;;5026702;28;20196;-49
2022/05/14 04:23:31;;;;;;;10.87;4.90;;;11.90;99.90;;;;;;5010012;28;20206;-45
2022/05/14 04:25:59;;;;;;;12.07;4.87;;;11.90;99.90;;;;;;5025888;28;21210;-47
2022/05/14 04:28:27;;;;;;;11.30;5.33;;;11.80;99.90;;;;;;5012585;28;20215;-45
2022/05/14 04:30:55;;;;;;;10.83;5.00;;;11.80;99.90;;;;;;5001291;28;25302;-47
2022/05/14 04:33:24;;;;;;;9.83;4.77;;;11.90;99.90;;;;;;5013560;28;20203;-47
2022/05/14 04:35:52;;;;;;;11.83;4.80;;;11.90;99.90;;;;;;4995202;28;20221;-44
2022/05/14 04:38:20;;;;;;;13.67;5.33;;;11.90;99.90;;;;;;5004681;28;20206;-45
2022/05/14 04:40:48;;;;;;;10.63;5.10;;;11.90;99.90;;;;;;5015670;28;20698;-49
2022/05/14 04:43:16;;;;;;;10.73;5.13;;;11.90;99.90;;;;;;5001637;28;20203;-46
2022/05/14 04:45:44;;;;;;;15.87;5.37;;;11.90;99.90;;;;;;5012153;28;20219;-49
2022/05/14 04:48:12;;;;;;;10.27;5.40;;;11.90;99.90;;;;;;4991902;28;20219;-51
2022/05/14 04:50:40;;;;;;;9.50;5.00;;;12.00;99.90;;;;;;4994815;28;20245;-47
2022/05/14 04:53:08;;;;;;;9.30;4.47;;;12.00;99.90;;;;;;5019494;28;20199;-50
2022/05/14 04:55:36;;;;;;;16.07;5.73;;;12.00;99.90;;;;;;5016402;28;20234;-50
2022/05/14 04:58:04;;;;;;;14.63;6.03;;;12.00;99.90;;;;;;5011927;28;20200;-47
2022/05/14 05:00:30;;;;;;;12.47;5.13;;;12.00;99.90;;;;;;5015495;28;20882;-48
2022/05/14 05:05:42;;;;;;;13.83;5.20;;;12.00;99.90;;;;;;5015546;28;20224;-48
2022/05/14 05:08:11;;;;;;;8.20;4.77;;;12.00;99.90;;;;;;5020361;28;20200;-49
2022/05/14 05:10:38;;;;;;;13.57;5.60;;;12.00;99.90;;;;;;5017634;28;20213;-46
2022/05/14 05:13:09;;;;;;;12.90;4.87;;;12.00;99.90;;;;;;5019867;28;20970;-50
2022/05/14 05:15:36;;;;;;;14.87;5.53;;;12.00;99.90;;;;;;5020146;28;20223;-50
2022/05/14 05:18:05;;;;;;;14.30;5.60;;;12.00;99.90;;;;;;5003306;28;24388;-47
2022/05/14 05:20:31;;;;;;;12.33;6.07;;;12.00;99.90;;;;;;5022427;28;20200;-47
2022/05/14 05:22:58;;;;;;;12.23;5.70;;;12.00;99.90;;;;;;5012677;28;20200;-47
2022/05/14 05:25:26;;;;;;;12.87;5.20;;;12.00;99.90;;;;;;5008439;28;20223;-50
2022/05/14 05:27:53;;;;;;;15.03;5.43;;;12.00;99.90;;;;;;5030477;28;20292;-48
2022/05/14 05:30:20;;;;;;;13.77;4.90;;;12.00;99.90;;;;;;5022248;28;20200;-51
2022/05/14 05:32:47;;;;;;;16.67;6.17;;;12.10;99.90;;;;;;5019909;28;20224;-44
2022/05/14 05:35:14;;;;;;;16.97;6.00;;;12.10;99.90;;;;;;4999634;28;20267;-49
2022/05/14 05:37:41;;;;;;;14.70;5.40;;;12.10;99.90;;;;;;5017089;28;20199;-47
2022/05/14 05:40:08;;;;;;;16.00;6.27;;;12.20;99.90;;;;;;5019464;28;20200;-47
2022/05/14 05:42:36;;;;;;;15.50;5.93;;;12.20;99.90;;;;;;5018105;28;20202;-44
2022/05/14 05:45:03;;;;;;;18.67;7.23;;;12.20;99.90;;;;;;5029154;28;20253;-44
2022/05/14 05:47:30;;;;;;;15.03;5.50;;;12.20;99.90;;;;;;5007819;28;20225;-46
2022/05/14 05:49:57;;;;;;;14.77;5.20;;;12.30;99.90;;;;;;5008880;28;20208;-46
2022/05/14 05:52:24;;;;;;;12.17;5.77;;;12.30;99.90;;;;;;5009881;28;20200;-46
2022/05/14 05:57:39;;;;;;;14.50;6.17;;;12.40;99.90;;;;;;5012627;28;20188;-46
2022/05/14 06:00:11;;;;;;;14.50;5.37;;;12.40;99.90;;;;;;5024333;28;20290;-47
2022/05/14 06:02:38;;;;;;;17.20;5.70;;;12.50;99.90;;;;;;5009049;28;20208;-47
2022/05/14 06:05:06;;;;;;;11.63;6.03;;;12.50;99.90;;;;;;5011975;28;20215;-46
2022/05/14 06:07:34;;;;;;;16.33;5.73;;;12.60;99.90;;;;;;5012437;28;20921;-47
2022/05/14 06:10:02;;;;;;;14.93;6.07;;;12.60;99.90;;;;;;5018709;28;20287;-47
2022/05/14 06:12:30;;;;;;;17.37;5.73;;;12.70;99.90;;;;;;5013687;28;20718;-48
2022/05/14 06:14:58;;;;;;;13.07;4.83;;;12.80;99.90;;;;;;5025097;28;20219;-48
2022/05/14 06:17:25;;;;;;;11.20;6.23;;;12.80;99.90;;;;;;5027514;28;20195;-47
2022/05/14 06:19:52;;;;;;;10.67;4.67;;;12.90;99.90;;;;;;5017225;28;20286;-49
2022/05/14 06:22:18;;;;;;;14.67;5.50;;;13.00;99.90;;;;;;4999905;28;20692;-44
2022/05/14 06:24:45;;;;;;;16.87;5.47;;;13.00;99.90;;;;;;5014534;28;20210;-45
2022/05/14 06:27:15;;;;;;;17.77;5.67;;;13.10;99.90;;;;;;5022441;28;20219;-46
2022/05/14 06:29:41;;;;;;;14.60;5.87;;;13.20;99.90;;;;;;5020722;28;20191;-45
2022/05/14 06:32:09;;;;;;;18.27;5.97;;;13.30;99.90;;;;;;5028134;28;20208;-46
2022/05/14 06:34:36;;;;;;;11.77;5.53;;;13.30;99.90;;;;;;5015630;28;20881;-47
2022/05/14 06:37:03;;;;;;;29.50;6.30;;;13.40;99.90;;;;;;5006579;28;20216;-48
2022/05/14 06:39:30;;;;;;;20.80;9.83;;;13.40;99.90;;;;;;5004892;28;20263;-44
2022/05/14 06:41:58;;;;;;;23.83;6.57;;;13.40;99.90;;;;;;5021805;28;20702;-44
2022/05/14 06:44:24;;;;;;;12.10;5.30;;;13.40;99.90;;;;;;5016705;28;20602;-46
2022/05/14 06:46:51;;;;;;;9.80;5.10;;;13.40;99.90;;;;;;5021814;28;20708;-47
2022/05/14 06:49:19;;;;;;;12.97;5.87;;;13.40;99.90;;;;;;5015268;28;20309;-48
2022/05/14 06:51:46;;;;;;;11.23;5.20;;;13.40;99.90;;;;;;5003736;28;20286;-47
2022/05/14 06:54:13;;;;;;;18.67;6.37;;;13.40;99.90;;;;;;5016557;28;20208;-46
2022/05/14 06:56:44;;;;;;;18.43;6.10;;;13.50;99.90;;;;;;5016171;28;20230;-48
2022/05/14 06:59:14;;;;;;;19.30;6.07;;;13.50;99.90;;;;;;5028345;28;20196;-46
2022/05/14 07:01:44;;;;;;;15.60;6.07;;;13.70;99.90;;;;;;5020496;28;20237;-46
2022/05/14 07:07:03;;;;;;;14.63;5.00;;;13.80;99.90;;;;;;5009401;28;20307;-44
2022/05/14 07:09:30;;;;;;;13.57;5.40;;;13.80;99.90;;;;;;5016857;28;20208;-44
2022/05/14 07:11:59;;;;;;;17.90;5.43;;;13.90;99.90;;;;;;5024474;28;20212;-47
2022/05/14 07:14:27;;;;;;;17.20;5.87;;;13.90;99.90;;;;;;5021551;28;20208;-47
2022/05/14 07:16:54;;;;;;;17.50;5.40;;;14.00;99.90;;;;;;5031891;28;20211;-43
2022/05/14 07:19:23;;;;;;;14.60;4.83;;;14.10;99.90;;;;;;5022117;28;20576;-43
2022/05/14 07:21:51;;;;;;;9.47;4.77;;;14.20;99.90;;;;;;5006889;28;20212;-43
2022/05/14 07:24:22;;;;;;;18.13;5.87;;;14.30;99.90;;;;;;5012134;28;20204;-43
2022/05/14 07:26:51;;;;;;;17.57;5.13;;;14.30;99.90;;;;;;5016978;28;20239;-43
2022/05/14 07:29:20;;;;;;;14.70;5.77;;;14.30;99.90;;;;;;5025915;28;20661;-43
2022/05/14 07:31:48;;;;;;;10.23;5.10;;;14.30;99.90;;;;;;5026592;28;20219;-46
2022/05/14 07:34:15;;;;;;;18.33;6.33;;;14.30;99.90;;;;;;5024833;28;22176;-43
2022/05/14 07:36:46;;;;;;;18.40;5.07;;;14.30;99.90;;;;;;5016557;28;20281;-42
2022/05/14 07:39:14;;;;;;;14.43;5.10;;;14.40;99.90;;;;;;5009303;28;20204;-44
2022/05/14 07:41:45;;;;;;;15.87;4.50;;;14.50;99.90;;;;;;5018224;28;20204;-43
2022/05/14 07:44:14;;;;;;;10.97;4.07;;;14.60;99.90;;;;;;5028301;28;20562;-45
2022/05/14 07:46:44;;;;;;;14.43;5.00;;;14.70;99.90;;;;;;5027679;28;20298;-45
2022/05/14 07:49:13;;;;;;;14.13;4.40;;;14.70;99.90;;;;;;5023947;28;20200;-46
2022/05/14 07:51:41;;;;;;;10.67;3.90;;;14.80;99.90;;;;;;5014429;28;20251;-46
2022/05/14 07:54:08;;;;;;;13.27;4.67;;;14.90;99.90;;;;;;5011562;28;20638;-44
2022/05/14 07:56:35;;;;;;;19.27;5.53;;;15.00;99.90;;;;;;5015225;28;20222;-45
2022/05/14 07:59:04;;;;;;;12.67;4.43;;;15.20;99.90;;;;;;5029921;28;20200;-43
2022/05/14 08:01:31;;;;;;;13.60;4.27;;;15.20;99.90;;;;;;5019686;28;20819;-48
2022/05/14 08:03:58;;;;;;;13.27;3.60;;;15.30;99.90;;;;;;5024922;28;20673;-44
2022/05/14 08:06:25;;;;;;;10.13;3.40;;;15.40;99.90;;;;;;5025001;28;20219;-43
2022/05/14 08:08:54;;;;;;;17.80;3.93;;;15.50;99.90;;;;;;5003340;28;20204;-43
2022/05/14 08:11:20;;;;;;;11.00;4.03;;;15.60;99.90;;;;;;5018538;28;20200;-43
2022/05/14 08:13:48;;;;;;;8.53;3.83;;;15.60;99.90;;;;;;5023967;28;20219;-44
2022/05/14 08:16:17;;;;;;;8.90;3.97;;;15.60;99.90;;;;;;5030530;28;20300;-45
2022/05/14 08:18:43;;;;;;;15.97;3.30;;;15.60;99.90;;;;;;5029135;28;20274;-44
2022/05/14 08:26:39;;;;;;;9.07;3.60;;;15.80;99.90;;;;;;5004615;28;20311;-47
2022/05/14 08:29:06;;;;;;;14.90;2.93;;;15.90;99.90;;;;;;5029613;28;20245;-45
2022/05/14 08:31:34;;;;;;;6.77;2.97;;;16.00;99.90;;;;;;5022964;28;20903;-45
2022/05/14 08:34:01;;;;;;;11.37;3.23;;;15.90;99.90;;;;;;5033535;28;20204;-46
2022/05/14 08:36:30;;;;;;;12.03;2.70;;;15.90;99.90;;;;;;5021734;28;20196;-45
2022/05/14 08:38:57;;;;;;;10.47;3.37;;;16.00;99.90;;;;;;5023674;28;20208;-42
2022/05/14 08:41:24;;;;;;;8.37;2.87;;;16.10;99.90;;;;;;4998577;28;20215;-43
2022/05/14 08:43:54;;;;;;;9.33;3.07;;;16.20;99.90;;;;;;5019651;28;20208;-46
2022/05/14 08:46:24;;;;;;;9.70;3.23;;;16.30;99.90;;;;;;5027026;28;20691;-45
2022/05/14 08:48:55;;;;;;;7.07;2.57;;;16.40;99.90;;;;;;5027240;28;20196;-42
2022/05/14 08:51:24;;;;;;;10.67;2.90;;;16.40;99.90;;;;;;5026501;28;20203;-43
2022/05/14 08:53:52;;;;;;;8.53;2.60;;;16.30;99.90;;;;;;5017515;28;20254;-44
2022/05/14 08:56:36;;;;;;;13.87;3.33;;;16.10;99.90;;;;;;5018111;28;20216;-42
2022/05/14 08:59:29;;;;;;;9.10;3.33;;;16.00;99.90;;;;;;5020496;28;20188;-42
2022/05/14 09:02:01;;;;;;;7.93;3.00;;;16.10;99.90;;;;;;5015962;28;20243;-42
2022/05/14 09:04:29;;;;;;;7.67;2.90;;;16.30;99.90;;;;;;5023020;28;20207;-41
2022/05/14 09:06:56;;;;;;;7.53;2.83;;;16.30;99.90;;;;;;5028378;28;20216;-42
2022/05/14 09:09:23;;;;;;;11.00;2.90;;;16.20;99.90;;;;;;5025132;28;20195;-46
2022/05/14 09:11:56;;;;;;;11.17;3.03;;;16.20;99.90;;;;;;5019683;28;20212;-43
2022/05/14 09:14:27;;;;;;;8.67;3.27;;;16.20;99.90;;;;;;5002410;28;20216;-45
2022/05/14 09:17:06;;;;;;;7.67;3.30;;;16.20;99.90;;;;;;5017976;28;20220;-45
2022/05/14 09:19:38;;;;;;;7.87;3.13;;;16.30;99.90;;;;;;5024123;28;20187;-43
2022/05/14 09:22:17;;;;;;;8.33;2.63;;;16.40;99.90;;;;;;5023568;28;20687;-50
2022/05/14 09:24:50;;;;;;;15.60;2.87;;;16.40;99.90;;;;;;5021267;28;20215;-46
2022/05/14 09:27:23;;;;;;;14.57;3.00;;;16.40;99.90;;;;;;5014844;28;20223;-44
2022/05/14 09:29:54;;;;;;;12.13;3.27;;;16.20;99.90;;;;;;5008345;28;20295;-42
2022/05/14 09:32:31;;;;;;;8.30;2.93;;;16.30;99.90;;;;;;5020001;28;20720;-45
2022/05/14 09:35:08;;;;;;;8.17;2.97;;;16.30;99.90;;;;;;5023837;28;20200;-49
2022/05/14 09:37:35;;;;;;;10.60;3.20;;;16.40;99.90;;;;;;5025079;28;20187;-46
2022/05/14 09:40:05;;;;;;;8.90;3.50;;;16.60;99.90;;;;;;5029906;28;20200;-44
2022/05/14 09:42:40;;;;;;;8.63;3.17;;;16.60;99.90;;;;;;5017517;28;20266;-46
2022/05/14 09:45:23;;;;;;;11.83;3.57;;;16.50;99.90;;;;;;5006458;28;20211;-44
2022/05/14 09:47:50;;;;;;;9.90;3.40;;;16.40;99.90;;;;;;5018910;28;20464;-45
2022/05/14 09:50:22;;;;;;;11.87;3.00;;;16.50;99.90;;;;;;5029762;28;20203;-44
2022/05/14 09:52:59;;;;;;;7.63;2.60;;;16.40;99.90;;;;;;5021173;28;20660;-45
2022/05/14 09:55:42;;;;;;;8.43;3.10;;;16.40;99.90;;;;;;5018671;28;20215;-44
2022/05/14 09:58:18;;;;;;;12.27;3.80;;;16.20;99.90;;;;;;5025352;28;20432;-45
2022/05/14 10:00:56;;;;;;;8.33;2.80;;;16.20;99.90;;;;;;5007450;28;20912;-45
2022/05/14 10:03:37;;;;;;;12.30;3.73;;;16.20;99.90;;;;;;5019016;28;20207;-44
2022/05/14 10:06:19;;;;;;;13.23;3.88;;;16.40;99.90;;;;;;5024073;28;20515;-44
2022/05/14 10:09:03;;;;;;;13.50;3.80;;;16.50;99.90;;;;;;5022594;28;20220;-45
2022/05/14 10:11:33;;;;;;;15.03;4.17;;;16.40;99.90;;;;;;5018496;28;20878;-49
2022/05/14 10:14:10;;;;;;;11.83;4.07;;;16.30;99.90;;;;;;5010614;28;20211;-48
2022/05/14 10:16:46;;;;;;;13.30;3.73;;;16.20;99.90;;;;;;4998959;28;20576;-44
2022/05/14 10:19:24;;;;;;;9.40;2.90;;;16.20;99.90;;;;;;5011940;28;20589;-45
2022/05/14 10:22:02;;;;;;;13.90;4.03;;;16.30;99.90;;;;;;5025722;28;20200;-46
2022/05/14 10:27:45;;;;;;;12.97;3.83;;;16.30;99.90;;;;;;5017614;28;20948;-47
2022/05/14 10:30:17;;;;;;;15.10;3.80;;;16.20;99.90;;;;;;4998217;28;20211;-48
2022/05/14 10:32:46;;;;;;;12.93;3.43;;;16.30;99.90;;;;;;5020574;28;20295;-47
2022/05/14 10:35:18;;;;;;;11.93;3.30;;;16.50;99.90;;;;;;5015972;28;20196;-45
2022/05/14 10:37:51;;;;;;;9.23;2.80;;;16.60;99.90;;;;;;5026485;28;20211;-45
2022/05/14 10:40:23;;;;;;;11.67;3.20;;;16.70;99.90;;;;;;5027520;28;20291;-47
2022/05/14 10:43:19;;;;;;;9.67;3.40;;;16.60;99.90;;;;;;5022059;28;20668;-46
2022/05/14 10:45:48;;;;;;;9.47;2.77;;;16.60;99.90;;;;;;5004354;28;20228;-50
2022/05/14 10:48:25;;;;;;;7.03;2.17;;;16.50;99.90;;;;;;5020294;28;20205;-47
2022/05/14 10:50:52;;;;;;;9.17;2.67;;;16.40;99.90;;;;;;5016532;28;20204;-49
2022/05/14 10:53:20;;;;;;;9.70;2.97;;;16.40;99.90;;;;;;5026958;28;20187;-47
2022/05/14 10:55:55;;;;;;;12.63;3.07;;;16.50;99.90;;;;;;5024812;28;20231;-47
2022/05/14 10:58:36;;;;;;;9.60;2.40;;;16.60;99.90;;;;;;5014107;28;20195;-47
2022/05/14 11:01:29;;;;;;;10.43;3.07;;;16.50;99.90;;;;;;4985917;28;20243;-48
2022/05/14 11:03:58;;;;;;;10.60;2.90;;;16.40;99.90;;;;;;5027337;28;20229;-45
2022/05/14 11:06:30;;;;;;;8.03;2.83;;;16.30;99.90;;;;;;5019061;28;20463;-48
2022/05/14 11:08:59;;;;;;;9.83;3.00;;;16.30;99.90;;;;;;5024889;28;20561;-45
2022/05/14 11:11:28;;;;;;;10.70;2.60;;;16.20;99.90;;;;;;5029461;28;20187;-45
2022/05/14 11:14:02;;;;;;;11.57;3.83;;;16.20;99.90;;;;;;5024411;28;20590;-49
2022/05/14 11:16:44;;;;;;;9.00;2.73;;;16.40;99.90;;;;;;5002252;28;20350;-49
2022/05/14 11:19:11;;;;;;;9.10;2.77;;;16.60;99.90;;;;;;5021369;28;20214;-47
2022/05/14 11:21:41;;;;;;;7.70;2.30;;;16.70;99.90;;;;;;5023660;28;20254;-47
2022/05/14 11:24:13;;;;;;;9.17;2.07;;;16.80;99.90;;;;;;5023678;28;20653;-44
2022/05/14 11:26:49;;;;;;;6.80;2.10;;;17.00;99.90;;;;;;5018704;28;20224;-48
2022/05/14 11:29:21;;;;;;;5.83;2.07;;;17.00;99.90;;;;;;5019231;28;20212;-49
2022/05/14 11:31:55;;;;;;;7.97;2.23;;;17.00;99.90;;;;;;4999861;28;20255;-49
2022/05/14 11:34:26;;;;;;;9.43;1.90;;;17.10;99.90;;;;;;5021902;28;20188;-47
2022/05/14 11:36:56;;;;;;;8.83;1.93;;;17.00;99.90;;;;;;5024146;28;20274;-47
2022/05/14 11:39:29;;;;;;;9.07;2.10;;;17.00;99.90;;;;;;5015880;28;20199;-46
2022/05/14 11:42:24;;;;;;;5.33;1.87;;;17.00;99.90;;;;;;5022808;28;20661;-45
2022/05/14 11:44:56;;;;;;;9.07;1.83;;;17.00;99.90;;;;;;5021514;28;20208;-46
2022/05/14 11:47:45;;;;;;;5.23;1.87;;;17.00;99.90;;;;;;4997629;28;20224;-44
2022/05/14 11:50:14;;;;;;;7.43;2.60;;;16.90;99.90;;;;;;5015808;28;20200;-46
2022/05/14 11:52:51;;;;;;;6.60;2.70;;;16.90;99.90;;;;;;5017567;28;20236;-44
2022/05/14 11:55:22;;;;;;;11.10;2.90;;;16.90;99.90;;;;;;5022303;28;20210;-46
2022/05/14 11:57:55;;;;;;;7.50;2.00;;;17.00;99.90;;;;;;5026148;28;20665;-45
2022/05/14 12:00:26;;;;;;;9.27;2.07;;;17.00;99.90;;;;;;5021504;28;20199;-50
2022/05/14 12:02:58;;;;;;;6.77;2.40;;;17.00;99.90;;;;;;5020013;28;20204;-48
2022/05/14 12:05:32;;;;;;;10.77;2.07;;;17.00;99.90;;;;;;5011541;28;20234;-47
2022/05/14 12:08:25;;;;;;;8.90;2.97;;;17.00;99.90;;;;;;5017980;28;20231;-47
2022/05/14 12:10:57;;;;;;;5.10;2.20;;;17.10;99.90;;;;;;5014824;28;20212;-49
2022/05/14 12:13:34;;;;;;;6.27;1.90;;;17.20;99.90;;;;;;5023181;28;20879;-46
2022/05/14 12:16:03;;;;;;;8.10;2.57;;;17.20;99.90;;;;;;5023442;28;20224;-45
2022/05/14 12:18:30;;;;;;;6.33;2.33;;;17.20;99.90;;;;;;5016044;28;20208;-43
2022/05/14 12:20:59;;;;;;;5.23;2.20;;;17.20;99.90;;;;;;5005900;28;20219;-44
2022/05/14 12:23:37;;;;;;;7.03;2.10;;;17.20;99.90;;;;;;5015685;28;20251;-44
2022/05/14 12:26:17;;;;;;;5.93;2.13;;;17.20;99.90;;;;;;5024604;28;20550;-52
2022/05/14 12:28:44;;;;;;;7.40;1.90;;;17.30;99.90;;;;;;5022765;28;20227;-46
2022/05/14 12:34:00;;;;;;;6.67;2.53;;;17.40;99.90;;;;;;5021225;28;20229;-45
2022/05/14 12:36:32;;;;;;;5.40;2.10;;;17.40;99.90;;;;;;5005661;28;20222;-45
2022/05/14 12:39:02;;;;;;;6.87;2.60;;;17.30;99.90;;;;;;5017115;28;20200;-43
2022/05/14 12:41:36;;;;;;;13.50;2.70;;;17.50;99.90;;;;;;5015195;28;20188;-43
2022/05/14 12:44:10;;;;;;;8.57;2.60;;;17.60;99.90;;;;;;5020634;28;20579;-44
2022/05/14 12:46:43;;;;;;;8.23;2.83;;;17.50;99.90;;;;;;5018142;28;20232;-45
2022/05/14 12:49:17;;;;;;;6.07;2.33;;;17.50;99.90;;;;;;5009474;28;20254;-44
2022/05/14 12:51:48;;;;;;;9.07;2.60;;;17.70;99.90;;;;;;5010158;28;20286;-51
2022/05/14 12:54:19;;;;;;;7.57;2.20;;;17.90;99.90;;;;;;5010006;28;20192;-47
2022/05/14 12:56:47;;;;;;;8.63;2.60;;;18.30;99.90;;;;;;5025413;28;20579;-46
2022/05/14 12:59:14;;;;;;;5.80;1.80;;;18.40;99.80;;;;;;5017801;28;20184;-44
2022/05/14 13:01:41;;;;;;;7.80;2.10;;;18.30;98.90;;;;;;5016975;28;20215;-45
2022/05/14 13:04:10;;;;;;;5.60;1.90;;;18.50;98.90;;;;;;5018326;28;20203;-44
2022/05/14 13:06:44;;;;;;;6.37;2.23;;;18.90;98.40;;;;;;5017383;28;20281;-42
2022/05/14 13:09:18;;;;;;;9.07;2.07;;;19.20;97.40;;;;;;5009574;28;20214;-42
2022/05/14 13:11:49;;;;;;;8.63;2.63;;;19.10;97.00;;;;;;5018056;28;20212;-46
2022/05/14 13:14:21;;;;;;;5.73;2.10;;;18.50;96.40;;;;;;5015054;28;20577;-44
2022/05/14 13:16:57;;;;;;;3.90;1.70;;;18.30;97.00;;;;;;5023793;28;20223;-44